sensor_id;sensor_type;location;lat;lon;timestamp;P1;durP1;ratioP1;P2;durP2;ratioP2
44434;SDS011;30138;20.964;105.830;2023-07-22T00:04:26;31.45;;;21.38;;
44434;SDS011;30138;20.964;105.830;2023-07-22T00:09:35;30.38;;;23.00;;
44434;SDS011;30138;20.964;105.830;2023-07-22T00:14:45;34.33;;;21.40;;
44434;SDS011;30138;20.964;105.830;2023-07-22T00:19:53;29.85;;;20.98;;
44434;SDS011;30138;20.964;105.830;2023-07-22T00:25:02;26.15;;;18.80;;
44434;SDS011;30138;20.964;105.830;2023-07-22T00:30:16;23.92;;;18.88;;
44434;SDS011;30138;20.964;105.830;2023-07-22T00:35:24;28.63;;;19.33;;
44434;SDS011;30138;20.964;105.830;2023-07-22T00:40:34;22.13;;;16.73;;
44434;SDS011;30138;20.964;105.830;2023-07-22T00:45:44;22.20;;;16.30;;
44434;SDS011;30138;20.964;105.830;2023-07-22T00:50:52;19.65;;;15.75;;
44434;SDS011;30138;20.964;105.830;2023-07-22T00:56:01;16.98;;;13.55;;
44434;SDS011;30138;20.964;105.830;2023-07-22T01:01:12;14.35;;;8.93;;
44434;SDS011;30138;20.964;105.830;2023-07-22T01:06:20;25.63;;;8.17;;
44434;SDS011;30138;20.964;105.830;2023-07-22T01:11:32;24.25;;;7.13;;
44434;SDS011;30138;20.964;105.830;2023-07-22T01:16:43;20.52;;;7.22;;
44434;SDS011;30138;20.964;105.830;2023-07-22T01:21:51;26.65;;;7.32;;
44434;SDS011;30138;20.964;105.830;2023-07-22T01:27:04;16.13;;;6.50;;
44434;SDS011;30138;20.964;105.830;2023-07-22T01:32:14;14.68;;;5.70;;
44434;SDS011;30138;20.964;105.830;2023-07-22T01:37:24;14.35;;;6.03;;
44434;SDS011;30138;20.964;105.830;2023-07-22T01:42:35;12.18;;;5.35;;
44434;SDS011;30138;20.964;105.830;2023-07-22T01:47:43;9.57;;;5.25;;
44434;SDS011;30138;20.964;105.830;2023-07-22T01:52:52;6.72;;;3.90;;
44434;SDS011;30138;20.964;105.830;2023-07-22T01:58:02;8.18;;;3.55;;
44434;SDS011;30138;20.964;105.830;2023-07-22T02:03:10;8.15;;;3.00;;
44434;SDS011;30138;20.964;105.830;2023-07-22T02:08:19;11.18;;;3.53;;
44434;SDS011;30138;20.964;105.830;2023-07-22T02:13:29;12.23;;;3.75;;
44434;SDS011;30138;20.964;105.830;2023-07-22T02:18:37;30.20;;;4.60;;
44434;SDS011;30138;20.964;105.830;2023-07-22T02:23:49;53.28;;;5.57;;
44434;SDS011;30138;20.964;105.830;2023-07-22T02:29:00;26.23;;;5.53;;
44434;SDS011;30138;20.964;105.830;2023-07-22T02:34:10;26.55;;;5.30;;
44434;SDS011;30138;20.964;105.830;2023-07-22T02:39:18;33.75;;;4.47;;
44434;SDS011;30138;20.964;105.830;2023-07-22T02:44:28;14.15;;;4.57;;
44434;SDS011;30138;20.964;105.830;2023-07-22T02:49:36;35.05;;;6.93;;
44434;SDS011;30138;20.964;105.830;2023-07-22T02:54:53;17.65;;;5.63;;
44434;SDS011;30138;20.964;105.830;2023-07-22T03:00:17;22.17;;;5.93;;
44434;SDS011;30138;20.964;105.830;2023-07-22T03:05:27;21.60;;;7.22;;
44434;SDS011;30138;20.964;105.830;2023-07-22T03:10:37;20.10;;;7.22;;
44434;SDS011;30138;20.964;105.830;2023-07-22T03:15:52;17.60;;;7.47;;
44434;SDS011;30138;20.964;105.830;2023-07-22T03:21:01;23.27;;;7.53;;
44434;SDS011;30138;20.964;105.830;2023-07-22T03:26:10;23.33;;;8.82;;
44434;SDS011;30138;20.964;105.830;2023-07-22T03:31:22;22.87;;;8.90;;
44434;SDS011;30138;20.964;105.830;2023-07-22T03:36:31;26.98;;;8.88;;
44434;SDS011;30138;20.964;105.830;2023-07-22T03:41:39;24.02;;;8.90;;
44434;SDS011;30138;20.964;105.830;2023-07-22T03:46:49;21.55;;;8.55;;
44434;SDS011;30138;20.964;105.830;2023-07-22T03:51:57;21.88;;;9.00;;
44434;SDS011;30138;20.964;105.830;2023-07-22T03:57:05;17.88;;;8.05;;
44434;SDS011;30138;20.964;105.830;2023-07-22T04:02:16;15.95;;;7.53;;
44434;SDS011;30138;20.964;105.830;2023-07-22T04:07:25;13.18;;;6.20;;
44434;SDS011;30138;20.964;105.830;2023-07-22T04:12:33;12.13;;;6.50;;
44434;SDS011;30138;20.964;105.830;2023-07-22T04:17:43;14.05;;;5.70;;
44434;SDS011;30138;20.964;105.830;2023-07-22T04:22:52;10.17;;;5.00;;
44434;SDS011;30138;20.964;105.830;2023-07-22T04:28:04;6.57;;;4.35;;
44434;SDS011;30138;20.964;105.830;2023-07-22T04:33:14;5.65;;;3.75;;
44434;SDS011;30138;20.964;105.830;2023-07-22T04:38:22;7.15;;;3.53;;
44434;SDS011;30138;20.964;105.830;2023-07-22T04:43:31;4.50;;;3.38;;
44434;SDS011;30138;20.964;105.830;2023-07-22T04:55:43;5.72;;;2.75;;
44434;SDS011;30138;20.964;105.830;2023-07-22T05:00:51;4.20;;;2.95;;
44434;SDS011;30138;20.964;105.830;2023-07-22T05:06:01;5.55;;;3.05;;
44434;SDS011;30138;20.964;105.830;2023-07-22T05:11:12;3.00;;;2.30;;
44434;SDS011;30138;20.964;105.830;2023-07-22T05:16:20;18.17;;;3.50;;
44434;SDS011;30138;20.964;105.830;2023-07-22T05:21:28;6.93;;;2.67;;
44434;SDS011;30138;20.964;105.830;2023-07-22T05:26:39;10.98;;;2.78;;
44434;SDS011;30138;20.964;105.830;2023-07-22T05:31:48;5.70;;;2.40;;
44434;SDS011;30138;20.964;105.830;2023-07-22T05:36:59;4.25;;;2.15;;
44434;SDS011;30138;20.964;105.830;2023-07-22T05:42:14;5.60;;;2.30;;
44434;SDS011;30138;20.964;105.830;2023-07-22T05:52:30;11.82;;;2.60;;
44434;SDS011;30138;20.964;105.830;2023-07-22T05:57:41;2.67;;;2.15;;
44434;SDS011;30138;20.964;105.830;2023-07-22T06:02:50;2.72;;;2.00;;
44434;SDS011;30138;20.964;105.830;2023-07-22T06:08:00;2.70;;;1.77;;
44434;SDS011;30138;20.964;105.830;2023-07-22T06:18:58;4.70;;;1.77;;
44434;SDS011;30138;20.964;105.830;2023-07-22T06:24:04;2.78;;;1.80;;
44434;SDS011;30138;20.964;105.830;2023-07-22T06:29:14;2.60;;;1.88;;
44434;SDS011;30138;20.964;105.830;2023-07-22T06:34:25;2.50;;;1.65;;
44434;SDS011;30138;20.964;105.830;2023-07-22T06:39:34;1.75;;;1.50;;
44434;SDS011;30138;20.964;105.830;2023-07-22T06:44:44;2.22;;;1.67;;
44434;SDS011;30138;20.964;105.830;2023-07-22T06:49:54;1.70;;;1.50;;
44434;SDS011;30138;20.964;105.830;2023-07-22T06:55:02;1.48;;;1.38;;
44434;SDS011;30138;20.964;105.830;2023-07-22T07:00:14;2.50;;;1.60;;
44434;SDS011;30138;20.964;105.830;2023-07-22T07:05:23;3.53;;;1.63;;
44434;SDS011;30138;20.964;105.830;2023-07-22T07:10:34;2.95;;;1.70;;
44434;SDS011;30138;20.964;105.830;2023-07-22T07:15:47;2.10;;;1.60;;
44434;SDS011;30138;20.964;105.830;2023-07-22T07:20:56;2.03;;;1.70;;
44434;SDS011;30138;20.964;105.830;2023-07-22T07:26:04;1.80;;;1.50;;
44434;SDS011;30138;20.964;105.830;2023-07-22T07:31:16;3.00;;;1.65;;
44434;SDS011;30138;20.964;105.830;2023-07-22T07:36:25;2.05;;;1.35;;
44434;SDS011;30138;20.964;105.830;2023-07-22T07:41:33;2.05;;;1.45;;
44434;SDS011;30138;20.964;105.830;2023-07-22T07:46:44;1.60;;;1.40;;
44434;SDS011;30138;20.964;105.830;2023-07-22T07:51:53;2.27;;;1.63;;
44434;SDS011;30138;20.964;105.830;2023-07-22T07:57:02;3.40;;;1.60;;
44434;SDS011;30138;20.964;105.830;2023-07-22T08:02:12;2.15;;;1.63;;
44434;SDS011;30138;20.964;105.830;2023-07-22T08:07:21;1.50;;;1.40;;
44434;SDS011;30138;20.964;105.830;2023-07-22T08:12:29;1.65;;;1.55;;
44434;SDS011;30138;20.964;105.830;2023-07-22T08:17:42;2.25;;;1.60;;
44434;SDS011;30138;20.964;105.830;2023-07-22T08:22:51;3.17;;;1.52;;
44434;SDS011;30138;20.964;105.830;2023-07-22T08:28:00;2.83;;;1.67;;
44434;SDS011;30138;20.964;105.830;2023-07-22T08:33:10;1.83;;;1.58;;
44434;SDS011;30138;20.964;105.830;2023-07-22T08:38:21;1.60;;;1.50;;
44434;SDS011;30138;20.964;105.830;2023-07-22T08:43:29;1.50;;;1.40;;
44434;SDS011;30138;20.964;105.830;2023-07-22T08:53:54;3.47;;;1.75;;
44434;SDS011;30138;20.964;105.830;2023-07-22T08:59:04;11.57;;;1.87;;
44434;SDS011;30138;20.964;105.830;2023-07-22T09:04:15;1.35;;;1.25;;
44434;SDS011;30138;20.964;105.830;2023-07-22T09:09:24;2.30;;;1.40;;
44434;SDS011;30138;20.964;105.830;2023-07-22T09:14:33;1.35;;;1.25;;
44434;SDS011;30138;20.964;105.830;2023-07-22T09:19:47;3.70;;;1.70;;
44434;SDS011;30138;20.964;105.830;2023-07-22T09:25:12;1.70;;;1.40;;
44434;SDS011;30138;20.964;105.830;2023-07-22T09:30:23;1.50;;;1.40;;
44434;SDS011;30138;20.964;105.830;2023-07-22T09:35:43;2.97;;;1.20;;
44434;SDS011;30138;20.964;105.830;2023-07-22T09:40:53;3.90;;;1.43;;
44434;SDS011;30138;20.964;105.830;2023-07-22T09:46:06;3.13;;;2.00;;
44434;SDS011;30138;20.964;105.830;2023-07-22T09:51:17;4.35;;;2.38;;
44434;SDS011;30138;20.964;105.830;2023-07-22T09:56:25;4.05;;;2.20;;
44434;SDS011;30138;20.964;105.830;2023-07-22T10:01:38;4.57;;;2.30;;
44434;SDS011;30138;20.964;105.830;2023-07-22T10:06:51;3.25;;;1.98;;
44434;SDS011;30138;20.964;105.830;2023-07-22T10:11:59;5.20;;;2.30;;
44434;SDS011;30138;20.964;105.830;2023-07-22T10:17:08;3.63;;;1.88;;
44434;SDS011;30138;20.964;105.830;2023-07-22T10:22:18;4.63;;;2.17;;
44434;SDS011;30138;20.964;105.830;2023-07-22T10:32:35;2.53;;;1.80;;
44434;SDS011;30138;20.964;105.830;2023-07-22T10:37:46;5.55;;;1.70;;
44434;SDS011;30138;20.964;105.830;2023-07-22T10:42:56;3.10;;;1.80;;
44434;SDS011;30138;20.964;105.830;2023-07-22T10:48:06;3.35;;;2.10;;
44434;SDS011;30138;20.964;105.830;2023-07-22T10:53:29;2.20;;;1.90;;
44434;SDS011;30138;20.964;105.830;2023-07-22T11:04:08;3.17;;;2.00;;
44434;SDS011;30138;20.964;105.830;2023-07-22T11:09:39;3.65;;;2.30;;
44434;SDS011;30138;20.964;105.830;2023-07-22T11:14:48;3.53;;;2.22;;
44434;SDS011;30138;20.964;105.830;2023-07-22T11:19:59;4.73;;;2.90;;
44434;SDS011;30138;20.964;105.830;2023-07-22T11:25:16;6.40;;;3.30;;
44434;SDS011;30138;20.964;105.830;2023-07-22T11:30:24;4.03;;;2.72;;
44434;SDS011;30138;20.964;105.830;2023-07-22T11:35:34;8.30;;;5.10;;
44434;SDS011;30138;20.964;105.830;2023-07-22T11:40:44;12.32;;;5.80;;
44434;SDS011;30138;20.964;105.830;2023-07-22T11:51:04;13.57;;;6.40;;
44434;SDS011;30138;20.964;105.830;2023-07-22T11:56:19;9.18;;;5.22;;
44434;SDS011;30138;20.964;105.830;2023-07-22T12:01:30;8.65;;;5.30;;
44434;SDS011;30138;20.964;105.830;2023-07-22T12:06:39;9.48;;;5.75;;
44434;SDS011;30138;20.964;105.830;2023-07-22T12:11:54;9.90;;;6.32;;
44434;SDS011;30138;20.964;105.830;2023-07-22T12:17:02;10.27;;;5.53;;
44434;SDS011;30138;20.964;105.830;2023-07-22T12:22:16;8.93;;;5.55;;
44434;SDS011;30138;20.964;105.830;2023-07-22T12:27:30;7.07;;;5.25;;
44434;SDS011;30138;20.964;105.830;2023-07-22T12:32:38;8.63;;;5.05;;
44434;SDS011;30138;20.964;105.830;2023-07-22T12:37:46;8.05;;;5.50;;
44434;SDS011;30138;20.964;105.830;2023-07-22T12:42:56;7.70;;;4.85;;
44434;SDS011;30138;20.964;105.830;2023-07-22T12:48:05;7.73;;;5.37;;
44434;SDS011;30138;20.964;105.830;2023-07-22T12:53:13;9.40;;;6.07;;
44434;SDS011;30138;20.964;105.830;2023-07-22T12:58:24;9.50;;;5.80;;
44434;SDS011;30138;20.964;105.830;2023-07-22T13:03:32;8.90;;;6.25;;
44434;SDS011;30138;20.964;105.830;2023-07-22T13:08:40;10.18;;;5.88;;
44434;SDS011;30138;20.964;105.830;2023-07-22T13:13:50;11.38;;;5.57;;
44434;SDS011;30138;20.964;105.830;2023-07-22T13:19:00;8.82;;;5.22;;
44434;SDS011;30138;20.964;105.830;2023-07-22T13:24:08;9.52;;;5.68;;
44434;SDS011;30138;20.964;105.830;2023-07-22T13:29:18;11.63;;;5.32;;
44434;SDS011;30138;20.964;105.830;2023-07-22T13:34:26;8.43;;;4.93;;
44434;SDS011;30138;20.964;105.830;2023-07-22T13:39:34;8.07;;;5.68;;
44434;SDS011;30138;20.964;105.830;2023-07-22T13:44:44;9.23;;;6.22;;
44434;SDS011;30138;20.964;105.830;2023-07-22T13:49:54;10.75;;;5.68;;
44434;SDS011;30138;20.964;105.830;2023-07-22T13:55:03;9.65;;;5.68;;
44434;SDS011;30138;20.964;105.830;2023-07-22T14:00:15;7.75;;;5.25;;
44434;SDS011;30138;20.964;105.830;2023-07-22T14:05:23;8.67;;;5.47;;
44434;SDS011;30138;20.964;105.830;2023-07-22T14:10:31;11.05;;;5.82;;
44434;SDS011;30138;20.964;105.830;2023-07-22T14:15:44;23.92;;;12.45;;
44434;SDS011;30138;20.964;105.830;2023-07-22T14:20:54;22.23;;;11.63;;
44434;SDS011;30138;20.964;105.830;2023-07-22T14:26:03;18.67;;;10.55;;
44434;SDS011;30138;20.964;105.830;2023-07-22T14:31:19;19.48;;;9.68;;
44434;SDS011;30138;20.964;105.830;2023-07-22T14:36:28;21.45;;;9.43;;
44434;SDS011;30138;20.964;105.830;2023-07-22T14:41:40;15.43;;;9.88;;
44434;SDS011;30138;20.964;105.830;2023-07-22T14:46:51;16.27;;;9.63;;
44434;SDS011;30138;20.964;105.830;2023-07-22T14:51:59;14.10;;;9.33;;
44434;SDS011;30138;20.964;105.830;2023-07-22T14:57:22;16.73;;;9.65;;
44434;SDS011;30138;20.964;105.830;2023-07-22T15:02:35;16.48;;;8.35;;
44434;SDS011;30138;20.964;105.830;2023-07-22T15:07:44;12.27;;;8.07;;
44434;SDS011;30138;20.964;105.830;2023-07-22T15:12:52;11.43;;;7.82;;
44434;SDS011;30138;20.964;105.830;2023-07-22T15:18:03;12.38;;;7.22;;
44434;SDS011;30138;20.964;105.830;2023-07-22T15:23:11;11.53;;;6.40;;
44434;SDS011;30138;20.964;105.830;2023-07-22T15:28:21;8.75;;;6.53;;
44434;SDS011;30138;20.964;105.830;2023-07-22T15:33:31;10.45;;;6.40;;
44434;SDS011;30138;20.964;105.830;2023-07-22T15:38:41;8.95;;;6.15;;
44434;SDS011;30138;20.964;105.830;2023-07-22T15:43:51;8.93;;;5.63;;
44434;SDS011;30138;20.964;105.830;2023-07-22T15:49:03;15.00;;;6.20;;
44434;SDS011;30138;20.964;105.830;2023-07-22T15:59:19;9.77;;;6.10;;
44434;SDS011;30138;20.964;105.830;2023-07-22T16:04:31;12.35;;;6.40;;
44434;SDS011;30138;20.964;105.830;2023-07-22T16:09:43;9.07;;;6.25;;
44434;SDS011;30138;20.964;105.830;2023-07-22T16:14:53;11.05;;;6.22;;
44434;SDS011;30138;20.964;105.830;2023-07-22T16:20:10;8.38;;;5.18;;
44434;SDS011;30138;20.964;105.830;2023-07-22T16:25:20;6.72;;;4.95;;
44434;SDS011;30138;20.964;105.830;2023-07-22T16:30:29;7.53;;;5.22;;
44434;SDS011;30138;20.964;105.830;2023-07-22T16:35:44;7.47;;;5.15;;
44434;SDS011;30138;20.964;105.830;2023-07-22T16:40:56;7.35;;;5.00;;
44434;SDS011;30138;20.964;105.830;2023-07-22T16:46:05;7.20;;;5.10;;
44434;SDS011;30138;20.964;105.830;2023-07-22T16:51:16;8.15;;;4.82;;
44434;SDS011;30138;20.964;105.830;2023-07-22T16:56:26;6.60;;;4.85;;
44434;SDS011;30138;20.964;105.830;2023-07-22T17:01:35;8.88;;;4.50;;
44434;SDS011;30138;20.964;105.830;2023-07-22T17:06:45;8.35;;;4.80;;
44434;SDS011;30138;20.964;105.830;2023-07-22T17:11:54;7.43;;;4.70;;
44434;SDS011;30138;20.964;105.830;2023-07-22T17:17:05;6.05;;;4.18;;
44434;SDS011;30138;20.964;105.830;2023-07-22T17:22:54;5.65;;;4.18;;
44434;SDS011;30138;20.964;105.830;2023-07-22T17:28:05;7.43;;;4.35;;
44434;SDS011;30138;20.964;105.830;2023-07-22T17:33:13;6.60;;;4.35;;
44434;SDS011;30138;20.964;105.830;2023-07-22T17:38:24;5.65;;;4.07;;
44434;SDS011;30138;20.964;105.830;2023-07-22T17:43:32;5.23;;;3.90;;
44434;SDS011;30138;20.964;105.830;2023-07-22T17:48:42;5.90;;;3.50;;
44434;SDS011;30138;20.964;105.830;2023-07-22T17:53:54;5.90;;;4.03;;
44434;SDS011;30138;20.964;105.830;2023-07-22T17:59:02;5.80;;;3.88;;
44434;SDS011;30138;20.964;105.830;2023-07-22T18:04:10;4.35;;;3.55;;
44434;SDS011;30138;20.964;105.830;2023-07-22T18:09:20;5.32;;;4.03;;
44434;SDS011;30138;20.964;105.830;2023-07-22T18:14:28;5.10;;;3.83;;
44434;SDS011;30138;20.964;105.830;2023-07-22T18:19:37;4.47;;;3.63;;
44434;SDS011;30138;20.964;105.830;2023-07-22T18:24:47;5.30;;;3.30;;
44434;SDS011;30138;20.964;105.830;2023-07-22T18:29:55;4.63;;;3.47;;
44434;SDS011;30138;20.964;105.830;2023-07-22T18:35:03;4.85;;;3.40;;
44434;SDS011;30138;20.964;105.830;2023-07-22T18:40:15;4.72;;;3.20;;
44434;SDS011;30138;20.964;105.830;2023-07-22T18:45:23;5.70;;;3.30;;
44434;SDS011;30138;20.964;105.830;2023-07-22T18:50:31;5.30;;;3.35;;
44434;SDS011;30138;20.964;105.830;2023-07-22T18:55:42;3.55;;;2.88;;
44434;SDS011;30138;20.964;105.830;2023-07-22T19:00:51;3.85;;;2.80;;
44434;SDS011;30138;20.964;105.830;2023-07-22T19:05:59;5.13;;;2.75;;
44434;SDS011;30138;20.964;105.830;2023-07-22T19:11:10;4.88;;;2.50;;
44434;SDS011;30138;20.964;105.830;2023-07-22T19:16:18;5.38;;;2.83;;
44434;SDS011;30138;20.964;105.830;2023-07-22T19:21:26;3.83;;;2.60;;
44434;SDS011;30138;20.964;105.830;2023-07-22T19:26:38;4.72;;;2.38;;
44434;SDS011;30138;20.964;105.830;2023-07-22T19:31:47;5.38;;;2.50;;
44434;SDS011;30138;20.964;105.830;2023-07-22T19:36:56;5.70;;;2.65;;
44434;SDS011;30138;20.964;105.830;2023-07-22T19:42:07;6.05;;;2.72;;
44434;SDS011;30138;20.964;105.830;2023-07-22T19:47:16;3.78;;;2.35;;
44434;SDS011;30138;20.964;105.830;2023-07-22T19:52:24;3.47;;;2.50;;
44434;SDS011;30138;20.964;105.830;2023-07-22T19:57:34;3.47;;;2.30;;
44434;SDS011;30138;20.964;105.830;2023-07-22T20:02:42;4.40;;;2.80;;
44434;SDS011;30138;20.964;105.830;2023-07-22T20:07:50;3.97;;;2.40;;
44434;SDS011;30138;20.964;105.830;2023-07-22T20:13:01;2.53;;;2.13;;
44434;SDS011;30138;20.964;105.830;2023-07-22T20:18:09;3.57;;;2.30;;
44434;SDS011;30138;20.964;105.830;2023-07-22T20:23:18;2.38;;;2.03;;
44434;SDS011;30138;20.964;105.830;2023-07-22T20:28:29;3.97;;;2.30;;
44434;SDS011;30138;20.964;105.830;2023-07-22T20:33:38;2.28;;;2.03;;
44434;SDS011;30138;20.964;105.830;2023-07-22T20:38:46;2.40;;;1.90;;
44434;SDS011;30138;20.964;105.830;2023-07-22T20:43:57;2.63;;;2.20;;
44434;SDS011;30138;20.964;105.830;2023-07-22T20:49:05;4.23;;;2.30;;
44434;SDS011;30138;20.964;105.830;2023-07-22T20:54:13;3.10;;;2.00;;
44434;SDS011;30138;20.964;105.830;2023-07-22T20:59:25;2.95;;;1.80;;
44434;SDS011;30138;20.964;105.830;2023-07-22T21:04:34;2.20;;;1.90;;
44434;SDS011;30138;20.964;105.830;2023-07-22T21:09:42;2.55;;;2.00;;
44434;SDS011;30138;20.964;105.830;2023-07-22T21:14:52;2.47;;;2.08;;
44434;SDS011;30138;20.964;105.830;2023-07-22T21:20:00;1.80;;;1.70;;
44434;SDS011;30138;20.964;105.830;2023-07-22T21:25:09;2.22;;;1.90;;
44434;SDS011;30138;20.964;105.830;2023-07-22T21:30:20;2.33;;;2.05;;
44434;SDS011;30138;20.964;105.830;2023-07-22T21:35:28;2.58;;;1.98;;
44434;SDS011;30138;20.964;105.830;2023-07-22T21:40:47;2.28;;;1.70;;
44434;SDS011;30138;20.964;105.830;2023-07-22T21:45:57;1.98;;;1.85;;
44434;SDS011;30138;20.964;105.830;2023-07-22T21:51:05;2.88;;;1.67;;
44434;SDS011;30138;20.964;105.830;2023-07-22T21:56:14;1.95;;;1.67;;
44434;SDS011;30138;20.964;105.830;2023-07-22T22:01:25;2.60;;;1.77;;
44434;SDS011;30138;20.964;105.830;2023-07-22T22:11:43;2.08;;;1.83;;
44434;SDS011;30138;20.964;105.830;2023-07-22T22:16:54;2.90;;;1.73;;
44434;SDS011;30138;20.964;105.830;2023-07-22T22:27:10;1.85;;;1.73;;
44434;SDS011;30138;20.964;105.830;2023-07-22T22:32:24;3.83;;;1.48;;
44434;SDS011;30138;20.964;105.830;2023-07-22T22:42:39;2.35;;;1.75;;
44434;SDS011;30138;20.964;105.830;2023-07-22T22:47:50;1.50;;;1.40;;
44434;SDS011;30138;20.964;105.830;2023-07-22T22:52:59;2.05;;;1.50;;
44434;SDS011;30138;20.964;105.830;2023-07-22T22:58:07;1.67;;;1.50;;
44434;SDS011;30138;20.964;105.830;2023-07-22T23:03:17;1.67;;;1.58;;
44434;SDS011;30138;20.964;105.830;2023-07-22T23:08:25;1.70;;;1.60;;
44434;SDS011;30138;20.964;105.830;2023-07-22T23:13:33;1.60;;;1.50;;
44434;SDS011;30138;20.964;105.830;2023-07-22T23:18:43;1.45;;;1.35;;
44434;SDS011;30138;20.964;105.830;2023-07-22T23:28:59;1.58;;;1.48;;
44434;SDS011;30138;20.964;105.830;2023-07-22T23:34:09;1.60;;;1.50;;
44434;SDS011;30138;20.964;105.830;2023-07-22T23:39:17;1.63;;;1.40;;
44434;SDS011;30138;20.964;105.830;2023-07-22T23:44:25;2.10;;;1.40;;
44434;SDS011;30138;20.964;105.830;2023-07-22T23:49:35;1.88;;;1.50;;
44434;SDS011;30138;20.964;105.830;2023-07-22T23:54:44;1.50;;;1.40;;
44434;SDS011;30138;20.964;105.830;2023-07-22T23:59:52;1.80;;;1.25;;
